createdAt,value
2022-08-11T00:00:09.143Z,26.70
2022-08-11T00:02:53.336Z,26.60
2022-08-11T00:05:21.879Z,26.50
2022-08-11T00:07:53.327Z,26.60
2022-08-11T00:10:29.775Z,26.50
2022-08-11T00:13:00.031Z,26.50
2022-08-11T00:15:37.100Z,26.40
2022-08-11T00:18:04.312Z,26.40
2022-08-11T00:20:34.181Z,26.40
2022-08-11T00:23:06.551Z,26.40
2022-08-11T00:25:40.865Z,26.30
2022-08-11T00:28:27.801Z,26.30
2022-08-11T00:30:56.456Z,26.30
2022-08-11T00:33:44.157Z,26.20
2022-08-11T00:36:18.133Z,26.20
2022-08-11T00:38:51.415Z,26.20
2022-08-11T00:41:44.507Z,26.10
2022-08-11T00:44:30.074Z,26.10
2022-08-11T00:47:31.459Z,26.10
2022-08-11T00:50:43.216Z,26.00
2022-08-11T00:53:35.256Z,26.00
2022-08-11T00:56:39.527Z,24.50
2022-08-11T00:59:44.066Z,25.90
2022-08-11T01:02:39.474Z,25.90
2022-08-11T01:05:41.490Z,25.80
2022-08-11T01:08:11.131Z,25.80
2022-08-11T01:10:59.372Z,25.80
2022-08-11T01:13:53.063Z,25.70
2022-08-11T01:17:10.807Z,25.70
2022-08-11T01:20:47.430Z,25.70
2022-08-11T01:23:45.231Z,25.60
2022-08-11T01:26:49.518Z,25.60
2022-08-11T01:29:25.011Z,25.50
2022-08-11T01:32:16.508Z,25.50
2022-08-11T01:35:07.009Z,25.40
2022-08-11T01:37:58.293Z,25.40
2022-08-11T01:40:53.120Z,25.30
2022-08-11T01:46:11.703Z,25.30
2022-08-11T01:48:49.531Z,25.30
2022-08-11T01:53:59.463Z,25.20
2022-08-11T01:57:01.644Z,25.20
2022-08-11T01:59:49.333Z,25.20
2022-08-11T02:04:59.569Z,25.10
2022-08-11T02:08:21.995Z,25.10
2022-08-11T02:11:35.261Z,25.00
2022-08-11T02:14:20.915Z,25.00
2022-08-11T02:19:36.798Z,25.00
2022-08-11T02:22:43.834Z,24.90
2022-08-11T02:25:44.509Z,24.90
2022-08-11T02:28:25.882Z,24.90
2022-08-11T02:32:15.881Z,24.80
2022-08-11T02:34:42.602Z,24.80
2022-08-11T02:37:33.936Z,24.80
2022-08-11T02:40:25.266Z,24.80
2022-08-11T02:43:25.006Z,24.70
2022-08-11T02:46:01.056Z,24.70
2022-08-11T02:48:46.462Z,24.70
2022-08-11T02:51:32.109Z,24.70
2022-08-11T02:54:07.116Z,24.70
2022-08-11T02:56:57.449Z,24.80
2022-08-11T02:59:52.094Z,24.70
2022-08-11T03:02:25.211Z,24.70
2022-08-11T03:04:57.739Z,24.70
2022-08-11T03:07:31.296Z,24.70
2022-08-11T03:10:20.444Z,24.70
2022-08-11T03:13:11.189Z,24.70
2022-08-11T03:16:19.846Z,24.70
2022-08-11T03:18:46.560Z,24.70
2022-08-11T03:21:24.529Z,24.60
2022-08-11T03:24:17.163Z,24.60
2022-08-11T03:27:02.484Z,24.60
2022-08-11T03:29:32.010Z,24.60
2022-08-11T03:32:04.529Z,24.60
2022-08-11T03:34:31.877Z,28.90
2022-08-11T03:37:38.800Z,24.60
2022-08-11T03:40:49.423Z,24.50
2022-08-11T03:43:28.289Z,24.50
2022-08-11T03:46:07.766Z,24.50
2022-08-11T03:48:40.645Z,24.40
2022-08-11T03:51:18.237Z,24.50
2022-08-11T03:54:03.602Z,24.40
2022-08-11T03:56:52.802Z,24.40
2022-08-11T03:59:29.105Z,24.40
2022-08-11T04:02:14.199Z,24.40
2022-08-11T04:04:59.943Z,24.30
2022-08-11T04:07:45.538Z,24.30
2022-08-11T04:10:14.994Z,24.30
2022-08-11T04:12:56.739Z,24.30
2022-08-11T04:15:44.910Z,24.30
2022-08-11T04:18:29.989Z,24.10
2022-08-11T04:21:16.958Z,24.20
2022-08-11T04:24:37.023Z,24.30
2022-08-11T04:26:34.116Z,24.30
2022-08-11T04:29:35.978Z,24.30
2022-08-11T04:32:09.239Z,24.20
2022-08-11T04:34:56.216Z,24.20
2022-08-11T04:37:41.586Z,24.20
2022-08-11T04:40:26.816Z,24.20
2022-08-11T04:43:18.363Z,24.20
2022-08-11T04:46:03.495Z,24.20
2022-08-11T04:49:04.352Z,24.20
2022-08-11T04:52:16.308Z,24.20
2022-08-11T04:55:10.839Z,24.10
2022-08-11T04:58:29.973Z,24.20
2022-08-11T05:01:37.593Z,24.10
2022-08-11T05:04:05.204Z,24.10
2022-08-11T05:06:52.282Z,24.20
2022-08-11T05:09:25.509Z,24.10
2022-08-11T05:12:02.002Z,24.10
2022-08-11T05:14:59.717Z,24.10
2022-08-11T05:17:51.628Z,24.10
2022-08-11T05:20:37.234Z,24.10
2022-08-11T05:23:24.178Z,24.10
2022-08-11T05:26:46.658Z,24.10
2022-08-11T05:29:21.050Z,24.10
2022-08-11T05:32:14.114Z,24.10
2022-08-11T05:34:55.671Z,24.10
2022-08-11T05:37:33.212Z,24.10
2022-08-11T05:40:23.426Z,24.10
2022-08-11T05:43:09.660Z,21.00
2022-08-11T05:46:02.885Z,24.20
2022-08-11T05:48:53.561Z,24.20
2022-08-11T05:51:52.384Z,24.20
2022-08-11T05:54:42.002Z,24.20
2022-08-11T05:57:10.103Z,24.20
2022-08-11T06:00:00.969Z,24.20
2022-08-11T06:02:28.303Z,24.30
2022-08-11T06:04:59.847Z,19.70
2022-08-11T06:07:29.245Z,24.30
2022-08-11T06:10:14.971Z,24.30
2022-08-11T06:12:42.650Z,24.30
2022-08-11T06:15:11.804Z,24.40
2022-08-11T06:17:47.016Z,24.40
2022-08-11T06:20:14.401Z,24.50
2022-08-11T06:22:49.651Z,24.50
2022-08-11T06:25:19.557Z,24.50
2022-08-11T06:27:46.400Z,24.50
2022-08-11T06:30:14.006Z,24.60
2022-08-11T06:32:44.787Z,24.60
2022-08-11T06:35:17.590Z,24.60
2022-08-11T06:37:59.220Z,24.60
2022-08-11T06:40:27.491Z,24.70
2022-08-11T06:43:10.135Z,24.70
2022-08-11T06:45:55.111Z,24.80
2022-08-11T06:48:23.163Z,24.80
2022-08-11T06:51:10.339Z,24.80
2022-08-11T06:53:39.816Z,24.90
2022-08-11T06:56:25.877Z,24.90
2022-08-11T06:59:11.689Z,24.90
2022-08-11T07:01:38.483Z,24.90
2022-08-11T07:04:07.848Z,25.00
2022-08-11T07:06:50.626Z,25.10
2022-08-11T07:12:47.357Z,25.20
2022-08-11T07:53:07.118Z,26.00
2022-08-11T07:58:45.206Z,26.10
2022-08-11T08:04:24.229Z,26.20
2022-08-11T08:07:10.012Z,26.20
2022-08-11T08:12:43.079Z,26.30
2022-08-11T08:35:54.034Z,26.70
2022-08-11T09:21:06.315Z,27.40
2022-08-11T09:37:04.741Z,27.70
2022-08-11T09:39:50.912Z,27.80
2022-08-11T09:57:29.155Z,28.20
2022-08-11T10:05:26.006Z,28.30
2022-08-11T10:18:29.957Z,28.60
2022-08-11T10:24:00.957Z,28.70
2022-08-11T10:26:54.252Z,28.70
2022-08-11T10:38:06.407Z,29.00
2022-08-11T10:53:47.248Z,29.40
2022-08-11T11:04:00.156Z,29.60
2022-08-11T11:22:31.381Z,30.00
2022-08-11T11:54:36.575Z,30.70
2022-08-11T12:07:58.731Z,31.10
2022-08-11T12:23:50.570Z,31.40
2022-08-11T12:26:36.486Z,31.50
2022-08-11T13:03:09.346Z,32.50
2022-08-11T13:10:58.119Z,32.80
2022-08-11T13:26:03.704Z,34.00
2022-08-11T13:54:03.787Z,37.20
2022-08-11T14:07:01.392Z,38.50
2022-08-11T14:09:29.003Z,38.80
2022-08-11T14:25:19.013Z,40.20
2022-08-11T14:46:59.002Z,41.60
2022-08-11T14:54:44.050Z,41.90
2022-08-11T15:12:35.591Z,42.80
2022-08-11T15:25:57.736Z,43.40
2022-08-11T16:04:08.059Z,45.00
2022-08-11T16:06:37.526Z,45.00
2022-08-11T16:16:59.106Z,45.20
2022-08-11T17:07:04.138Z,44.30
2022-08-11T17:15:55.532Z,44.30
2022-08-11T17:18:41.025Z,44.20
2022-08-11T17:23:48.132Z,44.00
2022-08-11T17:26:26.376Z,43.90
2022-08-11T17:45:07.594Z,42.90
2022-08-11T17:53:07.116Z,42.30
2022-08-11T18:53:32.087Z,37.50
2022-08-11T18:56:18.166Z,37.30
2022-08-11T19:12:57.880Z,36.00
2022-08-11T19:18:31.170Z,35.60
2022-08-11T19:32:42.423Z,34.60
2022-08-11T19:35:28.575Z,34.50
2022-08-11T20:00:30.739Z,33.10
2022-08-11T20:08:48.497Z,32.70
2022-08-11T20:22:41.809Z,32.20
2022-08-11T20:39:18.197Z,31.60
2022-08-11T20:47:56.223Z,31.30
2022-08-11T21:30:07.204Z,30.20
2022-08-11T21:35:45.205Z,30.10
2022-08-11T21:38:31.567Z,30.10
2022-08-11T22:14:28.609Z,29.50
2022-08-11T22:36:48.562Z,29.10
2022-08-11T23:16:09.163Z,28.50
2022-08-11T23:18:54.646Z,28.50
2022-08-11T23:27:12.357Z,28.40
2022-08-11T23:57:47.777Z,28.20
